sensor_id;sensor_type;location;lat;lon;timestamp;pressure;altitude;pressure_sealevel;temperature;humidity
10460;BME280;54412;51.206;6.888;2023-05-19T00:01:14;101812.28;;;13.36;55.31
10460;BME280;54412;51.206;6.888;2023-05-19T00:03:53;101800.19;;;13.29;55.79
10460;BME280;54412;51.206;6.888;2023-05-19T00:06:27;101799.22;;;13.72;54.84
10460;BME280;54412;51.206;6.888;2023-05-19T00:09:06;101798.03;;;13.59;54.78
10460;BME280;54412;51.206;6.888;2023-05-19T00:11:34;101795.63;;;13.53;55.20
10460;BME280;54412;51.206;6.888;2023-05-19T00:14:03;101799.75;;;13.40;55.42
10460;BME280;54412;51.206;6.888;2023-05-19T00:16:30;101794.25;;;13.44;55.46
10460;BME280;54412;51.206;6.888;2023-05-19T00:19:02;101795.66;;;13.33;55.47
10460;BME280;54412;51.206;6.888;2023-05-19T00:21:28;101793.25;;;13.47;55.17
10460;BME280;54412;51.206;6.888;2023-05-19T00:23:55;101792.59;;;13.42;55.08
10460;BME280;54412;51.206;6.888;2023-05-19T00:26:23;101798.41;;;13.30;55.58
10460;BME280;54412;51.206;6.888;2023-05-19T00:28:49;101802.13;;;13.26;55.64
10460;BME280;54412;51.206;6.888;2023-05-19T00:31:15;101798.91;;;13.39;55.46
10460;BME280;54412;51.206;6.888;2023-05-19T00:33:41;101796.41;;;13.35;55.38
10460;BME280;54412;51.206;6.888;2023-05-19T00:36:07;101799.47;;;13.26;55.98
10460;BME280;54412;51.206;6.888;2023-05-19T00:38:36;101800.97;;;13.33;55.50
10460;BME280;54412;51.206;6.888;2023-05-19T00:41:03;101799.13;;;13.13;56.32
10460;BME280;54412;51.206;6.888;2023-05-19T00:43:30;101801.88;;;13.32;55.60
10460;BME280;54412;51.206;6.888;2023-05-19T00:45:58;101792.72;;;13.19;56.07
10460;BME280;54412;51.206;6.888;2023-05-19T00:48:25;101797.28;;;13.15;56.49
10460;BME280;54412;51.206;6.888;2023-05-19T00:50:55;101801.84;;;13.12;56.57
10460;BME280;54412;51.206;6.888;2023-05-19T00:53:27;101797.97;;;12.99;56.72
10460;BME280;54412;51.206;6.888;2023-05-19T00:55:54;101794.94;;;13.08;56.64
10460;BME280;54412;51.206;6.888;2023-05-19T00:58:19;101793.66;;;12.96;57.03
10460;BME280;54412;51.206;6.888;2023-05-19T01:00:45;101802.72;;;12.91;57.36
10460;BME280;54412;51.206;6.888;2023-05-19T01:03:11;101798.16;;;12.94;57.58
10460;BME280;54412;51.206;6.888;2023-05-19T01:05:39;101785.50;;;13.02;57.02
10460;BME280;54412;51.206;6.888;2023-05-19T01:08:14;101796.03;;;13.04;56.73
10460;BME280;54412;51.206;6.888;2023-05-19T01:10:40;101792.50;;;13.03;56.85
10460;BME280;54412;51.206;6.888;2023-05-19T01:13:07;101798.28;;;12.91;57.08
10460;BME280;54412;51.206;6.888;2023-05-19T01:15:55;101785.28;;;12.63;57.87
10460;BME280;54412;51.206;6.888;2023-05-19T01:30:29;101781.66;;;12.88;57.00
10460;BME280;54412;51.206;6.888;2023-05-19T01:33:01;101779.13;;;12.85;57.75
10460;BME280;54412;51.206;6.888;2023-05-19T01:35:28;101770.44;;;12.81;57.68
10460;BME280;54412;51.206;6.888;2023-05-19T01:37:58;101770.00;;;12.92;57.07
10460;BME280;54412;51.206;6.888;2023-05-19T01:40:25;101769.38;;;12.85;57.49
10460;BME280;54412;51.206;6.888;2023-05-19T01:42:55;101768.00;;;12.77;57.67
10460;BME280;54412;51.206;6.888;2023-05-19T01:45:22;101773.00;;;12.83;57.18
10460;BME280;54412;51.206;6.888;2023-05-19T01:47:53;101775.88;;;12.78;57.52
10460;BME280;54412;51.206;6.888;2023-05-19T01:50:19;101778.59;;;12.77;58.08
10460;BME280;54412;51.206;6.888;2023-05-19T01:52:45;101776.84;;;12.76;58.00
10460;BME280;54412;51.206;6.888;2023-05-19T01:55:11;101784.69;;;12.79;57.24
10460;BME280;54412;51.206;6.888;2023-05-19T02:00:57;101781.91;;;12.82;57.31
10460;BME280;54412;51.206;6.888;2023-05-19T02:04:16;101789.47;;;12.69;57.56
10460;BME280;54412;51.206;6.888;2023-05-19T02:07:11;101785.13;;;12.68;57.35
10460;BME280;54412;51.206;6.888;2023-05-19T02:09:52;101796.69;;;12.66;57.55
10460;BME280;54412;51.206;6.888;2023-05-19T02:12:34;101783.50;;;12.64;57.33
10460;BME280;54412;51.206;6.888;2023-05-19T02:15:16;101783.59;;;12.63;57.46
10460;BME280;54412;51.206;6.888;2023-05-19T02:17:44;101784.31;;;12.88;57.10
10460;BME280;54412;51.206;6.888;2023-05-19T02:20:17;101788.88;;;12.63;57.69
10460;BME280;54412;51.206;6.888;2023-05-19T02:22:44;101789.41;;;12.49;57.76
10460;BME280;54412;51.206;6.888;2023-05-19T02:25:10;101787.13;;;12.61;57.73
10460;BME280;54412;51.206;6.888;2023-05-19T02:27:37;101793.28;;;12.62;57.83
10460;BME280;54412;51.206;6.888;2023-05-19T02:30:05;101793.53;;;12.78;56.98
10460;BME280;54412;51.206;6.888;2023-05-19T02:32:31;101784.97;;;12.71;57.26
10460;BME280;54412;51.206;6.888;2023-05-19T02:34:57;101788.13;;;12.59;57.30
10460;BME280;54412;51.206;6.888;2023-05-19T02:37:23;101778.03;;;12.69;57.51
10460;BME280;54412;51.206;6.888;2023-05-19T02:39:49;101782.13;;;12.76;57.20
10460;BME280;54412;51.206;6.888;2023-05-19T02:42:15;101777.94;;;12.70;57.25
10460;BME280;54412;51.206;6.888;2023-05-19T02:44:44;101787.25;;;12.58;57.39
10460;BME280;54412;51.206;6.888;2023-05-19T02:47:09;101779.94;;;12.65;57.25
10460;BME280;54412;51.206;6.888;2023-05-19T02:49:35;101778.69;;;12.52;57.66
10460;BME280;54412;51.206;6.888;2023-05-19T02:52:02;101775.00;;;12.56;57.85
10460;BME280;54412;51.206;6.888;2023-05-19T02:54:29;101765.53;;;12.50;57.98
10460;BME280;54412;51.206;6.888;2023-05-19T02:56:56;101762.44;;;12.61;57.63
10460;BME280;54412;51.206;6.888;2023-05-19T02:59:22;101759.13;;;12.56;57.82
10460;BME280;54412;51.206;6.888;2023-05-19T03:01:50;101763.31;;;12.40;58.03
10460;BME280;54412;51.206;6.888;2023-05-19T03:04:15;101765.63;;;12.26;58.22
10460;BME280;54412;51.206;6.888;2023-05-19T03:06:45;101759.13;;;12.56;57.75
10460;BME280;54412;51.206;6.888;2023-05-19T03:09:11;101762.81;;;12.30;58.25
10460;BME280;54412;51.206;6.888;2023-05-19T03:11:38;101762.94;;;12.27;58.33
10460;BME280;54412;51.206;6.888;2023-05-19T03:14:04;101754.38;;;12.21;58.36
10460;BME280;54412;51.206;6.888;2023-05-19T03:16:29;101762.63;;;12.35;58.42
10460;BME280;54412;51.206;6.888;2023-05-19T03:18:56;101767.19;;;12.31;58.39
10460;BME280;54412;51.206;6.888;2023-05-19T03:21:21;101763.75;;;12.06;59.09
10460;BME280;54412;51.206;6.888;2023-05-19T03:23:47;101763.63;;;12.09;58.76
10460;BME280;54412;51.206;6.888;2023-05-19T03:26:13;101774.03;;;12.37;57.79
10460;BME280;54412;51.206;6.888;2023-05-19T03:28:38;101770.31;;;12.19;57.82
10460;BME280;54412;51.206;6.888;2023-05-19T03:31:04;101761.81;;;11.88;58.96
10460;BME280;54412;51.206;6.888;2023-05-19T03:33:30;101757.63;;;11.83;59.19
10460;BME280;54412;51.206;6.888;2023-05-19T03:35:56;101761.06;;;12.08;58.98
10460;BME280;54412;51.206;6.888;2023-05-19T03:38:22;101760.19;;;11.84;59.15
10460;BME280;54412;51.206;6.888;2023-05-19T03:40:48;101763.91;;;12.02;58.99
10460;BME280;54412;51.206;6.888;2023-05-19T03:43:13;101759.22;;;12.10;58.68
10460;BME280;54412;51.206;6.888;2023-05-19T03:45:40;101757.38;;;12.12;58.36
10460;BME280;54412;51.206;6.888;2023-05-19T03:48:06;101757.38;;;12.12;58.51
10460;BME280;54412;51.206;6.888;2023-05-19T03:50:32;101760.53;;;12.21;57.96
10460;BME280;54412;51.206;6.888;2023-05-19T03:52:59;101752.25;;;12.07;58.48
10460;BME280;54412;51.206;6.888;2023-05-19T03:55:26;101762.81;;;12.07;58.73
10460;BME280;54412;51.206;6.888;2023-05-19T03:57:54;101758.53;;;12.05;58.79
10460;BME280;54412;51.206;6.888;2023-05-19T04:00:20;101762.50;;;11.93;59.36
10460;BME280;54412;51.206;6.888;2023-05-19T04:02:46;101756.78;;;12.04;58.93
10460;BME280;54412;51.206;6.888;2023-05-19T04:05:12;101760.94;;;12.11;59.08
10460;BME280;54412;51.206;6.888;2023-05-19T04:07:38;101754.97;;;12.06;58.98
10460;BME280;54412;51.206;6.888;2023-05-19T04:10:04;101761.47;;;11.97;59.34
10460;BME280;54412;51.206;6.888;2023-05-19T04:12:30;101756.31;;;11.94;59.42
10460;BME280;54412;51.206;6.888;2023-05-19T04:14:56;101756.91;;;12.01;58.62
10460;BME280;54412;51.206;6.888;2023-05-19T04:17:22;101762.28;;;11.99;58.48
10460;BME280;54412;51.206;6.888;2023-05-19T04:19:53;101763.19;;;11.98;58.40
10460;BME280;54412;51.206;6.888;2023-05-19T04:22:19;101760.75;;;12.15;58.10
10460;BME280;54412;51.206;6.888;2023-05-19T04:24:45;101762.94;;;12.04;58.12
10460;BME280;54412;51.206;6.888;2023-05-19T04:27:12;101755.03;;;12.04;58.28
10460;BME280;54412;51.206;6.888;2023-05-19T04:29:38;101761.41;;;11.99;58.72
10460;BME280;54412;51.206;6.888;2023-05-19T04:32:08;101759.72;;;11.96;58.87
10460;BME280;54412;51.206;6.888;2023-05-19T04:34:35;101756.72;;;12.05;59.15
10460;BME280;54412;51.206;6.888;2023-05-19T04:37:06;101754.81;;;12.32;58.42
10460;BME280;54412;51.206;6.888;2023-05-19T04:39:32;101762.81;;;12.30;57.39
10460;BME280;54412;51.206;6.888;2023-05-19T04:41:57;101763.06;;;12.24;57.96
10460;BME280;54412;51.206;6.888;2023-05-19T04:44:24;101761.81;;;12.33;58.04
10460;BME280;54412;51.206;6.888;2023-05-19T04:46:51;101757.22;;;12.38;57.66
10460;BME280;54412;51.206;6.888;2023-05-19T04:49:19;101763.22;;;12.20;57.88
10460;BME280;54412;51.206;6.888;2023-05-19T04:51:45;101768.66;;;12.38;57.61
10460;BME280;54412;51.206;6.888;2023-05-19T04:54:14;101773.19;;;12.13;58.19
10460;BME280;54412;51.206;6.888;2023-05-19T04:56:40;101770.94;;;12.26;58.11
10460;BME280;54412;51.206;6.888;2023-05-19T04:59:06;101765.09;;;12.61;57.42
10460;BME280;54412;51.206;6.888;2023-05-19T05:01:32;101764.25;;;12.60;57.42
10460;BME280;54412;51.206;6.888;2023-05-19T05:03:58;101767.78;;;12.81;57.50
10460;BME280;54412;51.206;6.888;2023-05-19T05:06:25;101765.50;;;12.94;57.00
10460;BME280;54412;51.206;6.888;2023-05-19T05:08:53;101767.78;;;13.03;56.12
10460;BME280;54412;51.206;6.888;2023-05-19T05:11:19;101765.44;;;12.95;56.57
10460;BME280;54412;51.206;6.888;2023-05-19T05:13:45;101756.28;;;13.04;56.51
10460;BME280;54412;51.206;6.888;2023-05-19T05:16:12;101764.22;;;13.04;56.41
10460;BME280;54412;51.206;6.888;2023-05-19T05:18:38;101760.03;;;12.98;56.80
10460;BME280;54412;51.206;6.888;2023-05-19T05:21:05;101763.78;;;13.14;57.37
10460;BME280;54412;51.206;6.888;2023-05-19T05:23:31;101760.34;;;13.32;55.99
10460;BME280;54412;51.206;6.888;2023-05-19T05:25:57;101768.41;;;13.09;57.01
10460;BME280;54412;51.206;6.888;2023-05-19T05:28:23;101767.16;;;12.96;57.36
10460;BME280;54412;51.206;6.888;2023-05-19T05:30:49;101763.47;;;13.00;57.75
10460;BME280;54412;51.206;6.888;2023-05-19T05:33:15;101759.00;;;13.01;57.48
10460;BME280;54412;51.206;6.888;2023-05-19T05:35:42;101761.44;;;13.07;57.72
10460;BME280;54412;51.206;6.888;2023-05-19T05:38:08;101765.88;;;13.06;57.67
10460;BME280;54412;51.206;6.888;2023-05-19T05:40:35;101767.03;;;12.99;58.13
10460;BME280;54412;51.206;6.888;2023-05-19T05:43:01;101767.53;;;13.09;57.78
10460;BME280;54412;51.206;6.888;2023-05-19T05:45:27;101763.03;;;13.11;58.09
10460;BME280;54412;51.206;6.888;2023-05-19T05:47:53;101768.47;;;13.28;57.28
10460;BME280;54412;51.206;6.888;2023-05-19T05:50:19;101766.50;;;13.33;57.67
10460;BME280;54412;51.206;6.888;2023-05-19T05:52:49;101757.03;;;13.27;57.25
10460;BME280;54412;51.206;6.888;2023-05-19T05:55:16;101762.78;;;13.37;57.16
10460;BME280;54412;51.206;6.888;2023-05-19T05:57:44;101757.16;;;13.44;56.98
10460;BME280;54412;51.206;6.888;2023-05-19T06:00:10;101759.56;;;13.69;55.83
10460;BME280;54412;51.206;6.888;2023-05-19T06:02:45;101755.66;;;13.96;54.44
10460;BME280;54412;51.206;6.888;2023-05-19T06:05:12;101762.75;;;13.77;54.69
10460;BME280;54412;51.206;6.888;2023-05-19T06:07:39;101757.31;;;13.99;54.92
10460;BME280;54412;51.206;6.888;2023-05-19T06:10:06;101759.38;;;14.11;54.83
10460;BME280;54412;51.206;6.888;2023-05-19T06:12:33;101743.94;;;14.39;53.49
10460;BME280;54412;51.206;6.888;2023-05-19T06:15:01;101747.47;;;14.19;53.69
10460;BME280;54412;51.206;6.888;2023-05-19T06:17:27;101744.22;;;14.33;53.50
10460;BME280;54412;51.206;6.888;2023-05-19T06:19:53;101744.41;;;14.47;53.03
10460;BME280;54412;51.206;6.888;2023-05-19T06:22:19;101749.16;;;14.76;51.53
10460;BME280;54412;51.206;6.888;2023-05-19T06:24:44;101747.22;;;14.80;51.41
10460;BME280;54412;51.206;6.888;2023-05-19T06:27:10;101750.91;;;14.94;51.13
10460;BME280;54412;51.206;6.888;2023-05-19T06:29:35;101750.47;;;14.68;51.64
10460;BME280;54412;51.206;6.888;2023-05-19T06:32:01;101748.69;;;14.85;50.41
10460;BME280;54412;51.206;6.888;2023-05-19T06:34:27;101745.50;;;14.79;50.99
10460;BME280;54412;51.206;6.888;2023-05-19T06:36:52;101746.34;;;14.79;51.63
10460;BME280;54412;51.206;6.888;2023-05-19T06:39:18;101746.03;;;15.02;50.86
10460;BME280;54412;51.206;6.888;2023-05-19T06:41:44;101751.59;;;15.32;50.14
10460;BME280;54412;51.206;6.888;2023-05-19T06:44:10;101749.25;;;15.26;50.15
10460;BME280;54412;51.206;6.888;2023-05-19T06:46:35;101747.63;;;15.06;50.92
10460;BME280;54412;51.206;6.888;2023-05-19T06:49:01;101751.28;;;15.38;50.29
10460;BME280;54412;51.206;6.888;2023-05-19T06:51:27;101753.38;;;15.31;50.54
10460;BME280;54412;51.206;6.888;2023-05-19T06:53:52;101748.91;;;15.66;49.85
10460;BME280;54412;51.206;6.888;2023-05-19T06:56:18;101746.09;;;15.69;49.50
10460;BME280;54412;51.206;6.888;2023-05-19T06:58:44;101759.72;;;15.63;50.26
10460;BME280;54412;51.206;6.888;2023-05-19T07:01:10;101747.44;;;15.93;49.40
10460;BME280;54412;51.206;6.888;2023-05-19T07:03:36;101756.13;;;15.97;48.55
10460;BME280;54412;51.206;6.888;2023-05-19T07:06:02;101759.81;;;16.10;49.33
10460;BME280;54412;51.206;6.888;2023-05-19T07:08:27;101753.53;;;16.26;48.06
10460;BME280;54412;51.206;6.888;2023-05-19T07:10:53;101754.84;;;16.19;49.00
10460;BME280;54412;51.206;6.888;2023-05-19T07:13:22;101754.09;;;16.33;48.09
10460;BME280;54412;51.206;6.888;2023-05-19T07:15:48;101753.84;;;16.53;47.14
10460;BME280;54412;51.206;6.888;2023-05-19T07:18:14;101759.03;;;16.39;47.67
10460;BME280;54412;51.206;6.888;2023-05-19T07:20:40;101751.25;;;16.51;48.10
10460;BME280;54412;51.206;6.888;2023-05-19T07:23:05;101750.06;;;16.57;47.29
10460;BME280;54412;51.206;6.888;2023-05-19T07:25:31;101752.41;;;16.47;48.10
10460;BME280;54412;51.206;6.888;2023-05-19T07:27:58;101752.72;;;16.57;48.03
10460;BME280;54412;51.206;6.888;2023-05-19T07:30:29;101750.97;;;16.71;46.80
10460;BME280;54412;51.206;6.888;2023-05-19T07:32:55;101750.88;;;16.73;47.00
10460;BME280;54412;51.206;6.888;2023-05-19T07:35:20;101754.22;;;16.92;46.57
10460;BME280;54412;51.206;6.888;2023-05-19T07:37:50;101748.38;;;16.86;46.92
10460;BME280;54412;51.206;6.888;2023-05-19T07:40:16;101741.94;;;17.19;46.00
10460;BME280;54412;51.206;6.888;2023-05-19T07:42:42;101748.38;;;17.15;46.11
10460;BME280;54412;51.206;6.888;2023-05-19T07:45:09;101741.09;;;17.33;45.79
10460;BME280;54412;51.206;6.888;2023-05-19T07:47:36;101739.00;;;17.38;45.97
10460;BME280;54412;51.206;6.888;2023-05-19T07:50:02;101733.28;;;17.44;46.27
10460;BME280;54412;51.206;6.888;2023-05-19T07:52:28;101736.56;;;17.49;46.13
10460;BME280;54412;51.206;6.888;2023-05-19T07:54:53;101733.94;;;17.77;44.69
10460;BME280;54412;51.206;6.888;2023-05-19T07:57:19;101732.59;;;17.84;43.34
10460;BME280;54412;51.206;6.888;2023-05-19T07:59:45;101736.69;;;17.90;44.00
10460;BME280;54412;51.206;6.888;2023-05-19T08:02:10;101735.53;;;18.08;42.64
10460;BME280;54412;51.206;6.888;2023-05-19T08:04:36;101732.84;;;18.08;41.96
10460;BME280;54412;51.206;6.888;2023-05-19T08:07:02;101735.25;;;17.98;42.83
10460;BME280;54412;51.206;6.888;2023-05-19T08:09:28;101725.47;;;18.25;42.93
10460;BME280;54412;51.206;6.888;2023-05-19T08:11:54;101725.50;;;18.11;41.63
10460;BME280;54412;51.206;6.888;2023-05-19T08:14:19;101723.66;;;18.12;43.83
10460;BME280;54412;51.206;6.888;2023-05-19T08:16:48;101727.94;;;18.28;43.43
10460;BME280;54412;51.206;6.888;2023-05-19T08:19:14;101714.84;;;18.38;41.63
10460;BME280;54412;51.206;6.888;2023-05-19T08:21:40;101721.31;;;18.48;42.33
10460;BME280;54412;51.206;6.888;2023-05-19T08:24:07;101719.53;;;18.34;41.55
10460;BME280;54412;51.206;6.888;2023-05-19T08:26:33;101719.72;;;18.31;42.68
10460;BME280;54412;51.206;6.888;2023-05-19T08:28:59;101713.63;;;18.43;41.69
10460;BME280;54412;51.206;6.888;2023-05-19T08:31:25;101721.28;;;18.62;40.91
10460;BME280;54412;51.206;6.888;2023-05-19T08:33:51;101714.16;;;18.75;40.83
10460;BME280;54412;51.206;6.888;2023-05-19T08:36:17;101716.00;;;18.87;41.00
10460;BME280;54412;51.206;6.888;2023-05-19T08:38:43;101702.34;;;18.92;41.16
10460;BME280;54412;51.206;6.888;2023-05-19T08:41:09;101708.09;;;18.86;40.01
10460;BME280;54412;51.206;6.888;2023-05-19T08:43:35;101701.72;;;19.13;41.01
10460;BME280;54412;51.206;6.888;2023-05-19T08:46:03;101701.97;;;19.23;39.01
10460;BME280;54412;51.206;6.888;2023-05-19T08:48:29;101701.75;;;19.26;40.18
10460;BME280;54412;51.206;6.888;2023-05-19T08:51:19;101701.44;;;19.43;38.42
10460;BME280;54412;51.206;6.888;2023-05-19T08:53:50;101698.59;;;19.46;38.74
10460;BME280;54412;51.206;6.888;2023-05-19T08:56:22;101697.72;;;19.58;38.64
10460;BME280;54412;51.206;6.888;2023-05-19T08:58:50;101696.94;;;19.68;39.12
10460;BME280;54412;51.206;6.888;2023-05-19T09:01:16;101687.75;;;19.60;38.56
10460;BME280;54412;51.206;6.888;2023-05-19T09:03:46;101687.31;;;19.78;38.10
10460;BME280;54412;51.206;6.888;2023-05-19T09:06:14;101693.31;;;19.82;38.22
10460;BME280;54412;51.206;6.888;2023-05-19T09:08:41;101681.69;;;19.94;38.75
10460;BME280;54412;51.206;6.888;2023-05-19T09:11:11;101684.09;;;20.10;38.03
10460;BME280;54412;51.206;6.888;2023-05-19T09:13:37;101678.00;;;19.84;36.97
10460;BME280;54412;51.206;6.888;2023-05-19T09:16:03;101684.16;;;19.85;38.04
10460;BME280;54412;51.206;6.888;2023-05-19T09:18:29;101681.19;;;19.89;38.15
10460;BME280;54412;51.206;6.888;2023-05-19T09:20:57;101684.09;;;20.10;37.29
10460;BME280;54412;51.206;6.888;2023-05-19T09:23:31;101669.97;;;20.08;37.05
10460;BME280;54412;51.206;6.888;2023-05-19T09:26:04;101670.44;;;20.38;37.19
10460;BME280;54412;51.206;6.888;2023-05-19T09:28:34;101672.88;;;20.41;37.17
10460;BME280;54412;51.206;6.888;2023-05-19T09:31:10;101671.13;;;20.29;37.38
10460;BME280;54412;51.206;6.888;2023-05-19T09:33:41;101661.66;;;20.36;36.68
10460;BME280;54412;51.206;6.888;2023-05-19T09:36:08;101665.09;;;20.38;36.53
10460;BME280;54412;51.206;6.888;2023-05-19T09:38:37;101661.72;;;20.47;36.96
10460;BME280;54412;51.206;6.888;2023-05-19T09:41:06;101665.72;;;20.41;36.49
10460;BME280;54412;51.206;6.888;2023-05-19T09:43:33;101652.78;;;20.70;36.52
10460;BME280;54412;51.206;6.888;2023-05-19T09:46:09;101653.66;;;20.70;36.22
10460;BME280;54412;51.206;6.888;2023-05-19T09:48:38;101655.50;;;20.46;35.33
10460;BME280;54412;51.206;6.888;2023-05-19T09:51:06;101646.94;;;20.76;35.88
10460;BME280;54412;51.206;6.888;2023-05-19T09:53:33;101642.00;;;20.83;35.55
10460;BME280;54412;51.206;6.888;2023-05-19T09:56:01;101644.19;;;20.89;34.95
10460;BME280;54412;51.206;6.888;2023-05-19T09:58:32;101645.41;;;20.85;35.48
10460;BME280;54412;51.206;6.888;2023-05-19T10:01:02;101634.72;;;20.96;36.18
10460;BME280;54412;51.206;6.888;2023-05-19T10:03:29;101637.69;;;21.15;35.38
10460;BME280;54412;51.206;6.888;2023-05-19T10:05:59;101642.19;;;21.03;35.99
10460;BME280;54412;51.206;6.888;2023-05-19T10:08:27;101638.19;;;21.20;35.32
10460;BME280;54412;51.206;6.888;2023-05-19T10:10:56;101646.00;;;21.34;34.71
10460;BME280;54412;51.206;6.888;2023-05-19T10:13:23;101637.31;;;21.19;35.07
10460;BME280;54412;51.206;6.888;2023-05-19T10:15:49;101641.72;;;21.20;34.86
10460;BME280;54412;51.206;6.888;2023-05-19T10:18:17;101639.78;;;21.22;35.05
10460;BME280;54412;51.206;6.888;2023-05-19T10:20:44;101647.34;;;21.28;34.43
10460;BME280;54412;51.206;6.888;2023-05-19T10:23:11;101638.44;;;21.28;35.04
10460;BME280;54412;51.206;6.888;2023-05-19T10:25:37;101638.22;;;21.42;35.73
10460;BME280;54412;51.206;6.888;2023-05-19T10:28:13;101639.69;;;21.79;34.40
10460;BME280;54412;51.206;6.888;2023-05-19T10:30:46;101639.16;;;21.41;34.03
10460;BME280;54412;51.206;6.888;2023-05-19T10:33:16;101636.84;;;21.14;34.35
10460;BME280;54412;51.206;6.888;2023-05-19T10:37:04;101627.34;;;21.32;34.59
10460;BME280;54412;51.206;6.888;2023-05-19T10:39:27;101628.34;;;21.42;33.98
10460;BME280;54412;51.206;6.888;2023-05-19T10:45:16;101621.84;;;21.67;34.33
10460;BME280;54412;51.206;6.888;2023-05-19T10:47:43;101622.97;;;21.87;34.21
10460;BME280;54412;51.206;6.888;2023-05-19T10:50:10;101630.38;;;21.72;33.41
10460;BME280;54412;51.206;6.888;2023-05-19T10:52:37;101631.59;;;22.01;34.79
10460;BME280;54412;51.206;6.888;2023-05-19T10:55:07;101634.03;;;22.04;34.39
10460;BME280;54412;51.206;6.888;2023-05-19T10:57:33;101622.94;;;22.29;34.00
10460;BME280;54412;51.206;6.888;2023-05-19T11:00:03;101617.63;;;22.50;33.77
10460;BME280;54412;51.206;6.888;2023-05-19T11:02:42;101620.44;;;22.59;32.70
10460;BME280;54412;51.206;6.888;2023-05-19T11:05:14;101620.81;;;22.55;33.63
10460;BME280;54412;51.206;6.888;2023-05-19T11:07:53;101615.25;;;22.67;33.69
10460;BME280;54412;51.206;6.888;2023-05-19T11:10:23;101611.25;;;22.51;32.77
10460;BME280;54412;51.206;6.888;2023-05-19T11:12:49;101618.34;;;22.52;32.80
10460;BME280;54412;51.206;6.888;2023-05-19T11:15:15;101614.00;;;22.40;32.41
10460;BME280;54412;51.206;6.888;2023-05-19T11:17:47;101614.06;;;22.49;33.00
10460;BME280;54412;51.206;6.888;2023-05-19T11:20:28;101614.81;;;22.51;33.73
10460;BME280;54412;51.206;6.888;2023-05-19T11:23:14;101610.06;;;22.55;33.03
10460;BME280;54412;51.206;6.888;2023-05-19T11:25:49;101613.22;;;22.80;33.23
10460;BME280;54412;51.206;6.888;2023-05-19T11:28:18;101614.84;;;22.40;31.97
10460;BME280;54412;51.206;6.888;2023-05-19T11:30:47;101612.19;;;22.29;32.51
10460;BME280;54412;51.206;6.888;2023-05-19T11:33:16;101602.88;;;22.44;32.61
10460;BME280;54412;51.206;6.888;2023-05-19T11:35:46;101607.75;;;22.50;32.53
10460;BME280;54412;51.206;6.888;2023-05-19T11:38:13;101597.69;;;22.52;32.31
10460;BME280;54412;51.206;6.888;2023-05-19T11:40:41;101605.53;;;22.55;32.26
10460;BME280;54412;51.206;6.888;2023-05-19T11:43:06;101607.22;;;22.56;32.99
10460;BME280;54412;51.206;6.888;2023-05-19T11:45:33;101594.34;;;22.92;32.16
10460;BME280;54412;51.206;6.888;2023-05-19T11:47:59;101602.00;;;22.96;32.99
10460;BME280;54412;51.206;6.888;2023-05-19T11:50:27;101599.59;;;23.03;32.04
10460;BME280;54412;51.206;6.888;2023-05-19T11:52:54;101599.28;;;23.17;31.49
10460;BME280;54412;51.206;6.888;2023-05-19T11:55:21;101594.78;;;23.27;31.74
10460;BME280;54412;51.206;6.888;2023-05-19T11:58:05;101589.63;;;23.14;31.18
10460;BME280;54412;51.206;6.888;2023-05-19T12:00:35;101586.56;;;23.19;31.81
10460;BME280;54412;51.206;6.888;2023-05-19T12:03:04;101584.09;;;23.16;32.19
10460;BME280;54412;51.206;6.888;2023-05-19T12:05:30;101583.53;;;23.33;32.46
10460;BME280;54412;51.206;6.888;2023-05-19T12:07:56;101577.78;;;23.47;32.87
10460;BME280;54412;51.206;6.888;2023-05-19T12:10:23;101587.75;;;23.05;32.26
10460;BME280;54412;51.206;6.888;2023-05-19T12:12:50;101581.41;;;22.86;31.55
10460;BME280;54412;51.206;6.888;2023-05-19T12:15:22;101578.69;;;23.06;32.33
10460;BME280;54412;51.206;6.888;2023-05-19T12:17:50;101574.06;;;23.38;31.59
10460;BME280;54412;51.206;6.888;2023-05-19T12:20:22;101570.69;;;23.55;31.62
10460;BME280;54412;51.206;6.888;2023-05-19T12:22:48;101566.78;;;23.29;31.12
10460;BME280;54412;51.206;6.888;2023-05-19T12:25:17;101567.63;;;23.30;32.16
10460;BME280;54412;51.206;6.888;2023-05-19T12:27:43;101569.31;;;23.01;31.48
10460;BME280;54412;51.206;6.888;2023-05-19T12:30:10;101558.72;;;23.39;32.46
10460;BME280;54412;51.206;6.888;2023-05-19T12:32:37;101556.94;;;23.58;31.89
10460;BME280;54412;51.206;6.888;2023-05-19T12:35:04;101555.50;;;23.45;31.73
10460;BME280;54412;51.206;6.888;2023-05-19T12:37:31;101549.25;;;23.35;32.28
10460;BME280;54412;51.206;6.888;2023-05-19T12:40:01;101546.03;;;23.50;32.06
10460;BME280;54412;51.206;6.888;2023-05-19T12:42:29;101543.47;;;23.49;31.86
10460;BME280;54412;51.206;6.888;2023-05-19T12:44:58;101536.59;;;23.65;32.03
10460;BME280;54412;51.206;6.888;2023-05-19T12:47:34;101544.94;;;23.72;32.97
10460;BME280;54412;51.206;6.888;2023-05-19T12:50:04;101539.19;;;23.96;32.62
10460;BME280;54412;51.206;6.888;2023-05-19T12:52:32;101535.91;;;23.92;31.96
10460;BME280;54412;51.206;6.888;2023-05-19T12:55:02;101537.00;;;23.80;32.01
10460;BME280;54412;51.206;6.888;2023-05-19T12:57:37;101532.81;;;24.06;31.49
10460;BME280;54412;51.206;6.888;2023-05-19T13:00:05;101531.13;;;24.15;31.60
10460;BME280;54412;51.206;6.888;2023-05-19T13:02:37;101534.06;;;23.83;30.79
10460;BME280;54412;51.206;6.888;2023-05-19T13:05:18;101530.25;;;24.14;31.10
10460;BME280;54412;51.206;6.888;2023-05-19T13:07:56;101538.63;;;24.02;30.91
10460;BME280;54412;51.206;6.888;2023-05-19T13:10:23;101527.78;;;23.73;30.92
10460;BME280;54412;51.206;6.888;2023-05-19T13:12:52;101538.44;;;23.74;30.94
10460;BME280;54412;51.206;6.888;2023-05-19T13:15:18;101537.88;;;23.80;31.03